Time;durP1;ratioP1;P1;durP2;ratioP2;P2;SDS_P1;SDS_P2;PMS_P1;PMS_P2;Temp;Humidity;BMP_temperature;BMP_pressure;BME280_temperature;BME280_humidity;BME280_pressure;Samples;Min_cycle;Max_cycle;Signal;HPM_P1;HPM_P2
2022/04/24 00:00:22;;;;;;;21.00;13.82;;;308.10;2304.00;;;;;;5056187;28;20127;-86
2022/04/24 00:02:48;;;;;;;18.40;12.73;;;308.00;2304.00;;;;;;5055572;28;20050;-86
2022/04/24 00:05:14;;;;;;;22.70;12.85;;;307.70;2304.00;;;;;;5056188;28;20366;-89
2022/04/24 00:07:43;;;;;;;21.08;13.02;;;307.90;2304.00;;;;;;5056265;28;20485;-85
2022/04/24 00:10:10;;;;;;;18.38;11.63;;;307.90;2304.00;;;;;;5056011;28;20029;-87
2022/04/24 00:12:36;;;;;;;20.50;12.77;;;307.90;2304.00;;;;;;5055969;28;20063;-84
2022/04/24 00:15:02;;;;;;;17.58;11.77;;;307.80;2304.00;;;;;;5057273;28;20060;-87
2022/04/24 00:17:28;;;;;;;22.63;13.25;;;307.80;2304.00;;;;;;5060114;28;20022;-84
2022/04/24 00:19:54;;;;;;;21.00;12.85;;;307.70;2304.00;;;;;;5059425;28;20066;-86
2022/04/24 00:22:19;;;;;;;20.00;10.52;;;307.50;2304.00;;;;;;5059352;28;20469;-85
2022/04/24 00:24:45;;;;;;;20.73;12.20;;;307.60;2304.00;;;;;;5059345;28;20115;-86
2022/04/24 00:27:11;;;;;;;16.05;10.73;;;307.50;2304.00;;;;;;5058969;28;20032;-85
2022/04/24 00:29:37;;;;;;;26.13;16.70;;;307.40;2073.60;;;;;;5058843;28;20024;-86
2022/04/24 00:32:04;;;;;;;24.15;16.77;;;307.50;2304.00;;;;;;5058692;28;20542;-84
2022/04/24 00:34:33;;;;;;;32.30;17.65;;;307.40;2304.00;;;;;;5059072;28;20469;-85
2022/04/24 00:36:59;;;;;;;66.63;39.25;;;307.40;2304.00;;;;;;5058884;28;20028;-83
2022/04/24 00:39:25;;;;;;;67.65;40.70;;;307.30;1945.60;;;;;;5059143;28;20020;-87
2022/04/24 00:41:51;;;;;;;82.93;45.97;;;307.30;2304.00;;;;;;5058302;28;20111;-83
2022/04/24 00:44:18;;;;;;;57.88;31.70;;;307.40;2304.00;;;;;;5058857;28;20086;-89
2022/04/24 00:47:24;;;;;;;46.40;26.55;;;307.60;2304.00;;;;;;5058504;28;20036;-87
2022/04/24 00:49:50;;;;;;;37.00;21.08;;;307.50;2304.00;;;;;;5058407;28;20051;-83
2022/04/24 00:52:17;;;;;;;30.77;19.98;;;307.60;2304.00;;;;;;5076087;28;20024;-82
2022/04/24 00:54:43;;;;;;;33.42;20.10;;;307.60;2304.00;;;;;;5058077;28;20034;-83
2022/04/24 00:57:10;;;;;;;35.45;22.48;;;307.60;2304.00;;;;;;5058376;28;20025;-82
2022/04/24 00:59:40;;;;;;;36.85;22.38;;;307.50;2304.00;;;;;;5058229;28;20028;-86
2022/04/24 01:02:07;;;;;;;26.75;18.15;;;307.50;2304.00;;;;;;5058349;28;20031;-84
2022/04/24 01:04:38;;;;;;;27.10;17.60;;;307.50;2304.00;;;;;;5058253;28;20032;-81
2022/04/24 01:07:04;;;;;;;28.67;19.98;;;307.60;2304.00;;;;;;5057825;28;20020;-84
2022/04/24 01:09:32;;;;;;;28.05;17.55;;;307.30;2304.00;;;;;;5058121;28;20035;-83
2022/04/24 01:11:58;;;;;;;23.98;16.48;;;307.30;2176.00;;;;;;5057997;28;20028;-85
2022/04/24 01:14:26;;;;;;;24.02;16.63;;;307.30;2304.00;;;;;;5057836;28;20412;-84
2022/04/24 01:16:53;;;;;;;30.45;17.88;;;307.40;2304.00;;;;;;5057997;28;20040;-81
2022/04/24 01:19:20;;;;;;;26.75;16.08;;;307.40;2304.00;;;;;;5057638;28;20519;-85
2022/04/24 01:21:47;;;;;;;27.10;15.38;;;307.50;2304.00;;;;;;5057827;28;20385;-86
2022/04/24 01:24:15;;;;;;;21.08;14.35;;;307.40;2304.00;;;;;;5075392;28;20442;-83
2022/04/24 01:26:41;;;;;;;21.42;13.73;;;307.40;2304.00;;;;;;5057989;28;20025;-82
2022/04/24 01:29:07;;;;;;;18.83;12.93;;;307.50;2304.00;;;;;;5057761;28;20087;-86
2022/04/24 01:31:33;;;;;;;17.58;10.93;;;307.50;2304.00;;;;;;5057295;28;20035;-83
2022/04/24 01:34:00;;;;;;;18.80;11.55;;;307.50;2304.00;;;;;;5057621;28;20028;-84
2022/04/24 01:36:26;;;;;;;24.73;15.00;;;307.40;2304.00;;;;;;5057922;28;20020;-81
2022/04/24 01:38:52;;;;;;;21.15;13.60;;;307.30;2304.00;;;;;;5057612;28;20466;-82
2022/04/24 01:42:06;;;;;;;20.63;12.82;;;307.30;2304.00;;;;;;5055083;28;20048;-83
2022/04/24 01:45:40;;;;;;;23.60;15.35;;;307.30;2304.00;;;;;;5064424;28;20040;-84
2022/04/24 01:48:16;;;;;;;25.05;16.70;;;307.30;2304.00;;;;;;5062318;28;20037;-88
2022/04/24 01:50:45;;;;;;;25.50;15.90;;;282.50;2278.40;;;;;;5069550;28;20436;-89
2022/04/24 01:53:14;;;;;;;21.30;14.90;;;282.30;2278.40;;;;;;5075389;28;20016;-86
2022/04/24 01:55:41;;;;;;;25.92;16.67;;;282.40;2278.40;;;;;;5076811;28;20025;-88
2022/04/24 01:58:07;;;;;;;24.88;17.02;;;281.90;2278.40;;;;;;5075872;28;20039;-84
2022/04/24 02:00:36;;;;;;;24.85;16.67;;;282.50;2278.40;;;;;;5063039;28;20025;-87
2022/04/24 02:03:02;;;;;;;25.95;16.38;;;282.40;2278.40;;;;;;5075633;28;20032;-83
2022/04/24 02:05:28;;;;;;;22.48;13.85;;;282.50;2278.40;;;;;;5094399;28;20484;-81
2022/04/24 02:07:53;;;;;;;19.50;12.10;;;282.10;2278.40;;;;;;5076230;28;20020;-83
2022/04/24 02:10:19;;;;;;;18.35;11.80;;;281.90;2278.40;;;;;;5076329;28;20035;-84
2022/04/24 02:12:46;;;;;;;19.20;12.77;;;282.10;2201.60;;;;;;5072798;28;20021;-85
2022/04/24 02:15:12;;;;;;;19.65;11.40;;;282.00;2278.40;;;;;;5056918;28;20032;-85
2022/04/24 02:17:38;;;;;;;20.95;12.55;;;282.20;2278.40;;;;;;5056051;28;20025;-84
2022/04/24 02:20:05;;;;;;;21.77;14.90;;;281.90;2278.40;;;;;;5056800;28;20086;-83
2022/04/24 02:22:34;;;;;;;25.83;14.48;;;282.10;2278.40;;;;;;5056363;28;20059;-84
2022/04/24 02:25:00;;;;;;;22.98;16.35;;;282.20;2278.40;;;;;;5056144;28;20481;-84
2022/04/24 02:27:26;;;;;;;20.08;13.32;;;307.20;2304.00;;;;;;5067501;28;20025;-81
2022/04/24 02:29:52;;;;;;;20.30;13.45;;;282.20;2278.40;;;;;;5075537;28;20039;-83
2022/04/24 02:32:18;;;;;;;17.73;12.20;;;282.20;2278.40;;;;;;5076659;28;20381;-81
2022/04/24 02:34:44;;;;;;;19.98;13.25;;;282.30;2278.40;;;;;;5076260;28;20067;-80
2022/04/24 02:37:10;;;;;;;23.15;14.95;;;282.30;2278.40;;;;;;5075827;28;20063;-83
2022/04/24 02:39:36;;;;;;;21.27;14.57;;;282.10;2278.40;;;;;;5076341;28;20036;-83
2022/04/24 02:42:02;;;;;;;28.40;16.70;;;282.10;2278.40;;;;;;5077888;28;20589;-85
2022/04/24 02:44:28;;;;;;;22.73;14.07;;;282.20;2278.40;;;;;;5095707;28;20115;-82
2022/04/24 02:46:54;;;;;;;20.90;14.07;;;281.90;2278.40;;;;;;5130341;27;20051;-86
2022/04/24 02:49:20;;;;;;;17.30;12.45;;;281.90;2278.40;;;;;;5130875;27;20019;-81
2022/04/24 02:51:46;;;;;;;16.05;10.77;;;281.80;2278.40;;;;;;5129902;27;20027;-84
2022/04/24 02:54:12;;;;;;;14.93;9.70;;;281.90;2278.40;;;;;;5130577;27;20416;-80
2022/04/24 02:56:37;;;;;;;15.77;11.07;;;281.70;2278.40;;;;;;5096179;28;20081;-80
2022/04/24 02:59:03;;;;;;;16.15;11.13;;;281.60;2278.40;;;;;;5130370;27;20520;-84
2022/04/24 03:01:34;;;;;;;13.55;11.05;;;256.90;2252.80;;;;;;5130685;27;20024;-82
2022/04/24 03:04:00;;;;;;;18.50;11.25;;;256.90;2252.80;;;;;;5095997;28;20038;-82
2022/04/24 03:06:26;;;;;;;17.48;11.50;;;256.90;2252.80;;;;;;5096144;28;20024;-83
2022/04/24 03:08:52;;;;;;;18.75;10.95;;;281.60;2278.40;;;;;;5130150;27;20065;-83
2022/04/24 03:11:17;;;;;;;15.95;10.95;;;256.80;2252.80;;;;;;5095277;28;20032;-87
2022/04/24 03:13:43;;;;;;;13.90;10.23;;;256.90;2252.80;;;;;;5096157;28;20047;-85
2022/04/24 03:16:11;;;;;;;17.27;8.50;;;256.90;2252.80;;;;;;5095966;28;20034;-81
2022/04/24 03:18:36;;;;;;;19.08;10.70;;;256.80;2252.80;;;;;;5096439;28;20024;-82
2022/04/24 03:21:02;;;;;;;21.10;10.38;;;256.90;2252.80;;;;;;5130248;28;20076;-84
2022/04/24 03:23:28;;;;;;;15.02;9.73;;;256.90;2252.80;;;;;;5096340;28;20024;-84
2022/04/24 03:25:54;;;;;;;21.17;11.25;;;256.50;2252.80;;;;;;5095662;28;20034;-84
2022/04/24 03:28:20;;;;;;;18.05;11.27;;;256.70;2252.80;;;;;;5131684;28;20023;-82
2022/04/24 03:30:46;;;;;;;17.55;10.90;;;256.50;2252.80;;;;;;5133591;28;20123;-82
2022/04/24 03:33:12;;;;;;;18.30;11.98;;;256.60;2252.80;;;;;;5131726;28;20023;-83
2022/04/24 03:35:37;;;;;;;29.52;14.65;;;256.30;2252.80;;;;;;5095650;28;20024;-86
2022/04/24 03:38:03;;;;;;;25.50;15.35;;;256.30;2252.80;;;;;;5129733;28;20024;-83
2022/04/24 03:40:29;;;;;;;28.75;17.10;;;256.20;2252.80;;;;;;5130004;28;20092;-84
2022/04/24 03:42:55;;;;;;;28.23;16.77;;;256.20;2252.80;;;;;;5126224;28;20048;-82
2022/04/24 03:45:21;;;;;;;29.77;17.35;;;256.20;2252.80;;;;;;5092586;28;20058;-83
2022/04/24 03:47:51;;;;;;;24.73;15.32;;;256.10;1971.20;;;;;;5092062;28;20107;-83
2022/04/24 03:50:20;;;;;;;25.63;16.67;;;256.20;2252.80;;;;;;5092620;28;20035;-84
2022/04/24 03:52:47;;;;;;;21.80;14.82;;;256.10;2252.80;;;;;;5091989;28;20024;-82
2022/04/24 03:55:13;;;;;;;23.92;13.50;;;256.10;2252.80;;;;;;5093052;28;20032;-80
2022/04/24 03:57:39;;;;;;;24.85;13.95;;;256.10;2252.80;;;;;;5096273;28;20066;-82
2022/04/24 04:00:07;;;;;;;22.40;13.40;;;256.10;2252.80;;;;;;5095718;28;20016;-83
2022/04/24 04:02:42;;;;;;;25.33;14.80;;;256.20;2150.40;;;;;;5096257;28;20047;-82
2022/04/24 04:05:08;;;;;;;23.38;14.45;;;256.30;2252.80;;;;;;5096786;28;20500;-86
2022/04/24 04:07:34;;;;;;;22.58;13.95;;;256.10;2252.80;;;;;;5079041;28;20020;-85
2022/04/24 04:10:00;;;;;;;23.52;15.65;;;256.20;2252.80;;;;;;5095687;28;20024;-82
2022/04/24 04:12:29;;;;;;;23.67;15.07;;;256.10;2252.80;;;;;;5096149;28;20020;-85
2022/04/24 04:14:55;;;;;;;21.45;14.05;;;256.10;2252.80;;;;;;5095204;28;20698;-85
2022/04/24 04:17:21;;;;;;;22.52;15.82;;;256.20;2099.20;;;;;;5078345;28;20028;-84
2022/04/24 04:19:46;;;;;;;25.98;14.98;;;256.30;2252.80;;;;;;5112855;28;20020;-81
2022/04/24 04:22:12;;;;;;;26.70;14.50;;;256.30;2252.80;;;;;;5078006;28;20394;-83
2022/04/24 04:24:38;;;;;;;23.83;15.95;;;256.50;2252.80;;;;;;5095925;28;20052;-87
2022/04/24 04:27:04;;;;;;;24.42;15.07;;;256.50;2252.80;;;;;;5095236;28;20027;-83
2022/04/24 04:29:29;;;;;;;23.92;13.25;;;256.20;2252.80;;;;;;5095698;28;20078;-86
2022/04/24 04:31:55;;;;;;;20.75;12.98;;;256.30;2252.80;;;;;;5095164;28;20521;-84
2022/04/24 04:34:21;;;;;;;24.52;14.20;;;256.50;2252.80;;;;;;5096708;28;20458;-81
2022/04/24 04:36:47;;;;;;;24.17;14.45;;;256.70;2252.80;;;;;;5112007;28;20035;-84
2022/04/24 04:39:13;;;;;;;21.75;14.65;;;256.40;2252.80;;;;;;5095779;28;20012;-85
2022/04/24 04:41:40;;;;;;;23.05;14.52;;;256.50;2252.80;;;;;;5094269;28;20035;-84
2022/04/24 04:44:06;;;;;;;23.60;16.35;;;256.50;2252.80;;;;;;5126799;28;20035;-79
2022/04/24 04:46:31;;;;;;;29.73;18.85;;;256.50;2252.80;;;;;;5102900;28;20054;-78
2022/04/24 04:48:57;;;;;;;30.45;18.63;;;256.60;2252.80;;;;;;5119795;28;20070;-80
2022/04/24 04:51:23;;;;;;;32.92;19.42;;;256.70;2252.80;;;;;;5119696;28;20035;-80
2022/04/24 04:53:51;;;;;;;35.08;21.75;;;256.90;2252.80;;;;;;5078834;28;20089;-82
2022/04/24 04:56:17;;;;;;;32.35;20.80;;;281.60;2278.40;;;;;;5076688;28;20032;-82
2022/04/24 04:58:43;;;;;;;28.83;18.38;;;281.70;2278.40;;;;;;5074613;28;20032;-84
2022/04/24 05:01:09;;;;;;;27.05;17.13;;;281.70;2278.40;;;;;;5074710;28;20035;-83
2022/04/24 05:03:35;;;;;;;30.52;17.77;;;281.70;2278.40;;;;;;5074274;28;20088;-80
2022/04/24 05:06:00;;;;;;;24.73;16.02;;;256.90;2252.80;;;;;;5075825;28;20029;-82
2022/04/24 05:08:26;;;;;;;27.60;19.08;;;256.90;2252.80;;;;;;5073857;28;20059;-83
2022/04/24 05:10:52;;;;;;;29.60;18.98;;;256.90;2252.80;;;;;;5073897;28;20123;-81
2022/04/24 05:13:18;;;;;;;37.28;25.50;;;256.90;1868.80;;;;;;5074672;28;20527;-84
2022/04/24 05:15:43;;;;;;;30.45;22.80;;;256.90;2252.80;;;;;;5074723;28;20110;-83
2022/04/24 05:18:09;;;;;;;32.17;24.60;;;256.90;2252.80;;;;;;5073689;28;20024;-80
2022/04/24 05:20:36;;;;;;;30.00;21.58;;;281.60;2278.40;;;;;;5074433;28;20036;-84
2022/04/24 05:23:06;;;;;;;34.15;23.77;;;281.80;2278.40;;;;;;5073889;28;20024;-80
2022/04/24 05:25:33;;;;;;;32.42;21.85;;;281.70;2278.40;;;;;;5074201;28;20421;-82
2022/04/24 05:28:00;;;;;;;30.55;23.05;;;282.00;2278.40;;;;;;5074595;28;20394;-82
2022/04/24 05:30:28;;;;;;;36.15;27.40;;;282.10;2278.40;;;;;;5074104;28;20024;-80
2022/04/24 05:32:54;;;;;;;37.22;27.25;;;282.00;2278.40;;;;;;5073852;28;20214;-83
2022/04/24 05:35:20;;;;;;;35.15;24.48;;;282.10;2278.40;;;;;;5057410;28;20540;-84
2022/04/24 05:37:47;;;;;;;31.92;24.60;;;282.10;2278.40;;;;;;5073734;28;20421;-82
2022/04/24 05:40:14;;;;;;;37.08;25.90;;;282.40;2278.40;;;;;;5074041;28;20086;-83
2022/04/24 05:42:54;;;;;;;49.00;28.60;;;282.50;2278.40;;;;;;5073458;28;20048;-83
2022/04/24 05:45:24;;;;;;;48.67;32.60;;;282.50;2278.40;;;;;;5073654;28;20033;-82
2022/04/24 05:47:54;;;;;;;50.63;37.45;;;282.50;2278.40;;;;;;5073388;28;20024;-82
2022/04/24 05:50:23;;;;;;;58.38;37.55;;;307.30;2304.00;;;;;;5073661;28;20024;-82
2022/04/24 05:52:49;;;;;;;51.88;36.63;;;307.40;2304.00;;;;;;5073679;28;20025;-83
2022/04/24 05:55:15;;;;;;;51.25;36.80;;;307.50;2304.00;;;;;;5073496;28;20035;-83
2022/04/24 05:57:41;;;;;;;51.55;33.42;;;307.60;2304.00;;;;;;5073368;28;20536;-81
2022/04/24 06:00:08;;;;;;;45.53;31.05;;;307.80;2304.00;;;;;;5073481;28;20028;-84
2022/04/24 06:02:35;;;;;;;46.60;31.55;;;307.70;2304.00;;;;;;5073369;28;20051;-82
2022/04/24 06:05:01;;;;;;;44.72;28.35;;;307.70;2304.00;;;;;;5073581;28;20390;-84
2022/04/24 06:07:26;;;;;;;37.85;27.05;;;307.90;2304.00;;;;;;5072935;28;20024;-82
2022/04/24 06:09:52;;;;;;;35.40;25.65;;;308.10;2304.00;;;;;;5073714;28;20032;-82
2022/04/24 06:12:18;;;;;;;33.35;23.05;;;308.10;2304.00;;;;;;5056708;28;20024;-85
2022/04/24 06:14:44;;;;;;;33.88;22.70;;;332.80;2329.60;;;;;;5056614;28;20024;-84
2022/04/24 06:17:09;;;;;;;40.42;20.98;;;332.90;2329.60;;;;;;5073108;28;20115;-82
2022/04/24 06:19:35;;;;;;;27.23;17.52;;;332.90;2329.60;;;;;;5073027;28;20485;-83
2022/04/24 06:22:01;;;;;;;28.40;18.42;;;332.90;2329.60;;;;;;5073846;28;20477;-84
2022/04/24 06:24:27;;;;;;;23.65;17.10;;;333.00;2329.60;;;;;;5073422;28;20028;-83
2022/04/24 06:26:53;;;;;;;26.48;17.48;;;333.20;2329.60;;;;;;5056139;28;20480;-81
2022/04/24 06:29:19;;;;;;;26.67;15.68;;;333.30;2329.60;;;;;;5073156;28;20027;-85
2022/04/24 06:31:44;;;;;;;22.95;13.55;;;333.50;2329.60;;;;;;5072584;28;20386;-83
2022/04/24 06:34:10;;;;;;;33.67;21.73;;;333.60;2329.60;;;;;;5073193;28;20062;-84
2022/04/24 06:36:37;;;;;;;26.45;17.38;;;333.70;2329.60;;;;;;5072766;28;20031;-86
2022/04/24 06:39:03;;;;;;;24.73;15.57;;;358.50;2329.60;;;;;;5072468;28;20039;-84
2022/04/24 06:41:29;;;;;;;24.25;13.63;;;358.50;2329.60;;;;;;5056368;28;20028;-82
2022/04/24 06:43:55;;;;;;;20.27;13.68;;;358.70;2329.60;;;;;;5079406;28;20048;-80
2022/04/24 06:46:21;;;;;;;21.13;12.75;;;358.80;2329.60;;;;;;5079213;28;20416;-83
2022/04/24 06:48:47;;;;;;;25.60;15.10;;;358.90;2329.60;;;;;;5076500;28;20457;-82
2022/04/24 06:51:13;;;;;;;18.67;12.68;;;358.90;2329.60;;;;;;5075805;28;20043;-86
2022/04/24 06:53:39;;;;;;;21.20;13.95;;;358.90;2329.60;;;;;;5076225;28;20053;-84
2022/04/24 06:56:05;;;;;;;26.05;14.43;;;359.10;2329.60;;;;;;5075735;28;20076;-88
2022/04/24 06:58:31;;;;;;;22.30;13.02;;;359.20;2329.60;;;;;;5130568;27;20110;-80
2022/04/24 07:00:57;;;;;;;19.42;12.20;;;359.30;2329.60;;;;;;5114062;28;20020;-86
2022/04/24 07:03:24;;;;;;;16.92;11.50;;;359.30;2329.60;;;;;;5130185;27;20038;-83
2022/04/24 07:05:57;;;;;;;25.15;15.68;;;384.00;2329.60;;;;;;5130331;27;20472;-82
2022/04/24 07:08:27;;;;;;;20.50;12.45;;;359.30;2329.60;;;;;;5095605;28;20027;-83
2022/04/24 07:10:53;;;;;;;18.55;11.93;;;384.20;2329.60;;;;;;5076952;28;20038;-84
2022/04/24 07:13:19;;;;;;;26.00;12.60;;;384.30;2329.60;;;;;;5075144;28;20024;-82
2022/04/24 07:15:45;;;;;;;17.33;11.50;;;384.40;2329.60;;;;;;5075483;28;20028;-81
2022/04/24 07:18:11;;;;;;;17.45;10.70;;;384.60;2329.60;;;;;;5075857;28;20039;-82
2022/04/24 07:20:37;;;;;;;17.02;9.75;;;384.70;2329.60;;;;;;5075965;28;20047;-85
2022/04/24 07:23:05;;;;;;;13.80;8.52;;;384.90;2329.60;;;;;;5075656;28;20036;-85
2022/04/24 07:25:49;;;;;;;13.30;7.10;;;409.60;2355.20;;;;;;5075753;28;20035;-83
2022/04/24 07:28:19;;;;;;;18.88;8.10;;;409.70;2355.20;;;;;;5093812;28;20142;-84
2022/04/24 07:30:45;;;;;;;13.63;7.30;;;409.80;2355.20;;;;;;5077696;28;20123;-83
2022/04/24 07:33:11;;;;;;;11.90;7.15;;;409.90;2355.20;;;;;;5079718;28;20031;-83
2022/04/24 07:35:39;;;;;;;17.70;8.07;;;384.60;2329.60;;;;;;5079792;28;20504;-83
2022/04/24 07:38:05;;;;;;;12.23;6.90;;;410.00;2355.20;;;;;;5079261;28;20039;-82
2022/04/24 07:40:35;;;;;;;18.05;9.02;;;410.20;2355.20;;;;;;5079807;28;20689;-81
2022/04/24 07:43:07;;;;;;;14.88;7.90;;;410.30;2355.20;;;;;;5079585;28;20056;-82
2022/04/24 07:45:42;;;;;;;16.23;6.90;;;410.40;2355.20;;;;;;5079522;28;20038;-82
2022/04/24 07:48:10;;;;;;;16.45;10.13;;;435.20;2355.20;;;;;;5079460;28;20029;-83
2022/04/24 07:50:44;;;;;;;17.67;7.65;;;435.40;2355.20;;;;;;5079455;28;20035;-83
2022/04/24 07:53:54;;;;;;;14.98;7.32;;;435.40;2355.20;;;;;;5079403;28;20028;-88
2022/04/24 07:56:19;;;;;;;11.82;6.82;;;435.40;2355.20;;;;;;5079294;28;20127;-83
2022/04/24 07:59:36;;;;;;;14.55;6.70;;;435.60;2355.20;;;;;;5079138;28;20107;-86
2022/04/24 08:12:25;;;;;;;17.65;7.15;;;460.80;2380.80;;;;;;5064782;28;20123;-84
2022/04/24 08:15:09;;;;;;;15.95;7.22;;;461.10;2380.80;;;;;;5059167;28;20025;-86
2022/04/24 08:17:48;;;;;;;16.08;6.13;;;461.30;2380.80;;;;;;5078262;28;20068;-84
2022/04/24 08:20:16;;;;;;;9.30;4.68;;;461.50;2380.80;;;;;;5078256;28;20042;-85
2022/04/24 08:22:49;;;;;;;9.40;5.25;;;461.60;2380.80;;;;;;5077999;28;20086;-87
2022/04/24 08:25:17;;;;;;;13.90;5.88;;;486.40;2380.80;;;;;;5078498;28;20031;-86
2022/04/24 08:27:57;;;;;;;13.68;4.95;;;486.40;2380.80;;;;;;5077938;28;20101;-84
2022/04/24 08:30:47;;;;;;;15.05;6.05;;;486.50;2380.80;;;;;;5078405;28;20063;-84
2022/04/24 08:33:23;;;;;;;8.98;3.80;;;486.60;2380.80;;;;;;5078680;28;20081;-86
2022/04/24 08:35:49;;;;;;;7.95;4.90;;;486.70;2380.80;;;;;;5079035;28;20051;-82
2022/04/24 08:41:09;;;;;;;9.50;4.40;;;487.00;2380.80;;;;;;5081952;28;20024;-83
2022/04/24 08:43:48;;;;;;;9.10;4.38;;;487.10;2380.80;;;;;;5073528;28;20075;-85
2022/04/24 08:50:22;;;;;;;9.50;4.90;;;487.30;2380.80;;;;;;5077178;28;20062;-92
2022/04/24 09:06:06;;;;;;;14.18;6.28;;;512.70;2380.80;;;;;;5026209;28;20102;-87
2022/04/24 09:09:03;;;;;;;11.68;4.43;;;512.90;2380.80;;;;;;5013519;28;20034;-92
2022/04/24 09:11:38;;;;;;;17.10;4.68;;;512.90;2380.80;;;;;;5014818;28;20048;-88
2022/04/24 09:17:44;;;;;;;13.13;4.80;;;512.40;2380.80;;;;;;5015768;28;20514;-91
2022/04/24 09:20:41;;;;;;;13.40;5.20;;;538.00;2406.40;;;;;;5015363;28;20403;-91
2022/04/24 09:26:58;;;;;;;25.70;19.23;;;538.30;2406.40;;;;;;5002851;28;20068;-86
2022/04/24 09:29:42;;;;;;;20.67;12.85;;;538.30;2406.40;;;;;;5014344;28;20014;-84
2022/04/24 09:32:10;;;;;;;26.80;18.08;;;538.40;2406.40;;;;;;5013627;28;20376;-90
2022/04/24 09:38:19;;;;;;;17.50;11.13;;;563.40;2406.40;;;;;;5004703;28;20045;-87
2022/04/24 09:40:47;;;;;;;15.18;7.60;;;563.50;2432.00;;;;;;4995031;28;20030;-83
2022/04/24 09:46:38;;;;;;;15.50;7.57;;;563.90;2432.00;;;;;;5044372;28;20551;-87
2022/04/24 09:49:34;;;;;;;8.02;5.15;;;564.10;2432.00;;;;;;5037682;28;20029;-86
2022/04/24 09:52:13;;;;;;;9.40;5.57;;;564.10;2380.80;;;;;;5037481;28;20032;-84
2022/04/24 09:58:02;;;;;;;8.45;4.22;;;588.90;2176.00;;;;;;5057114;28;20055;-85
2022/04/24 10:01:22;;;;;;;8.35;3.42;;;589.00;2176.00;;;;;;5049971;28;20124;-87
2022/04/24 10:04:13;;;;;;;15.60;9.25;;;589.30;2150.40;;;;;;5043088;28;20031;-88
2022/04/24 10:06:40;;;;;;;26.33;19.83;;;589.60;2201.60;;;;;;5036283;28;20056;-83
2022/04/24 10:09:09;;;;;;;24.05;17.50;;;589.60;2099.20;;;;;;5036984;28;20063;-88
2022/04/24 10:11:52;;;;;;;7.47;4.10;;;614.40;2073.60;;;;;;5037327;28;20082;-89
2022/04/24 10:14:18;;;;;;;;;;;614.40;2048.00;;;;;;5037995;28;20025;-86
2022/04/24 10:17:18;;;;;;;11.48;6.88;;;614.50;2022.40;;;;;;5037385;28;19904;-85
2022/04/24 10:20:09;;;;;;;7.47;3.08;;;614.70;2048.00;;;;;;5037527;28;20021;-85
2022/04/24 10:22:52;;;;;;;19.30;9.82;;;614.80;1971.20;;;;;;5037240;28;20021;-87
2022/04/24 10:25:38;;;;;;;10.65;5.25;;;614.90;1945.60;;;;;;5037868;28;20021;-89
2022/04/24 10:28:19;;;;;;;14.05;7.30;;;615.10;1971.20;;;;;;5037174;28;20017;-87
2022/04/24 10:31:12;;;;;;;16.73;5.57;;;615.20;1894.40;;;;;;5036646;28;20075;-90
2022/04/24 10:37:01;;;;;;;9.75;4.97;;;615.30;1868.80;;;;;;4968915;28;20037;-84
2022/04/24 10:39:30;;;;;;;11.25;4.20;;;640.00;1894.40;;;;;;5037289;28;20029;-85
2022/04/24 10:41:58;;;;;;;8.30;3.80;;;640.10;1920.00;;;;;;5048758;28;20013;-85
2022/04/24 10:44:27;;;;;;;9.48;4.40;;;640.10;1868.80;;;;;;5061091;28;20020;-84
2022/04/24 10:56:33;;;;;;;8.63;3.42;;;640.90;1843.20;;;;;;5102031;28;20070;-89
2022/04/24 11:08:20;;;;;;;10.45;5.32;;;666.10;1817.60;;;;;;5951068;22;20559;-83
2022/04/24 11:11:15;;;;;;;11.75;6.25;;;666.20;1766.40;;;;;;5036441;28;20063;-87
2022/04/24 12:18:59;;;;;;;5.90;2.70;;;666.50;1638.40;;;;;;5421555;22;20118;-87
2022/04/24 12:21:27;;;;;;;5.60;2.40;;;666.50;1612.80;;;;;;5058744;28;20039;-85
2022/04/24 12:23:57;;;;;;;11.32;2.92;;;666.50;1587.20;;;;;;5058782;28;20028;-87
2022/04/24 12:30:00;;;;;;;7.55;3.45;;;691.40;1612.80;;;;;;5061434;28;20066;-88
2022/04/24 12:32:27;;;;;;;8.98;3.92;;;691.60;1612.80;;;;;;5055516;28;20047;-87
2022/04/24 12:34:54;;;;;;;11.02;3.97;;;691.80;1612.80;;;;;;5059126;28;20036;-86
2022/04/24 12:37:33;;;;;;;7.50;2.60;;;691.50;1587.20;;;;;;5058083;28;20541;-86
2022/04/24 12:40:39;;;;;;;8.77;3.03;;;691.90;1587.20;;;;;;5059241;28;20028;-86
2022/04/24 12:46:27;;;;;;;10.97;3.50;;;717.00;1612.80;;;;;;5076927;28;20109;-85
2022/04/24 12:49:17;;;;;;;9.55;3.90;;;717.10;1587.20;;;;;;5059388;28;20056;-89
2022/04/24 12:51:52;;;;;;;8.50;3.97;;;717.00;1587.20;;;;;;5074950;28;20032;-90
2022/04/24 12:54:18;;;;;;;12.45;3.63;;;717.00;1561.60;;;;;;5058790;28;20021;-86
2022/04/24 12:56:44;;;;;;;12.13;4.68;;;717.10;1561.60;;;;;;5059055;28;20525;-87
2022/04/24 12:59:13;;;;;;;15.95;3.95;;;717.10;1587.20;;;;;;5056283;28;20032;-89
2022/04/24 13:01:44;;;;;;;9.95;4.03;;;716.90;1612.80;;;;;;5059760;28;20016;-89
2022/04/24 13:04:23;;;;;;;9.10;3.75;;;691.90;1561.60;;;;;;5050338;28;20032;-88
2022/04/24 13:06:59;;;;;;;14.48;5.45;;;717.10;1587.20;;;;;;5045694;28;20028;-90
2022/04/24 13:09:31;;;;;;;17.08;6.63;;;717.40;1612.80;;;;;;5055438;28;20051;-88
2022/04/24 13:12:00;;;;;;;14.65;5.97;;;717.70;1561.60;;;;;;5065440;28;20074;-87
2022/04/24 13:14:26;;;;;;;12.95;4.60;;;717.70;1536.00;;;;;;5075572;28;20089;-88
2022/04/24 13:19:46;;;;;;;14.95;5.22;;;717.70;1536.00;;;;;;5075903;28;20067;-91
2022/04/24 13:22:12;;;;;;;18.33;4.70;;;742.40;1561.60;;;;;;5057941;28;20024;-87
2022/04/24 13:24:51;;;;;;;21.55;10.35;;;742.50;1536.00;;;;;;5057929;28;20017;-88
2022/04/24 13:27:21;;;;;;;30.05;14.07;;;742.50;1587.20;;;;;;5037990;28;20029;-88
2022/04/24 13:29:51;;;;;;;22.00;9.63;;;742.70;1561.60;;;;;;5049050;28;20031;-89
2022/04/24 13:32:17;;;;;;;20.95;8.30;;;743.20;1587.20;;;;;;5057703;28;20182;-89
2022/04/24 13:34:49;;;;;;;21.63;10.32;;;742.90;1561.60;;;;;;5057979;28;20111;-89
2022/04/24 13:40:14;;;;;;;14.30;5.53;;;742.70;1587.20;;;;;;5073706;28;19926;-86
2022/04/24 13:42:54;;;;;;;15.23;5.78;;;743.10;1561.60;;;;;;5047903;28;20064;-86
2022/04/24 13:45:20;;;;;;;20.95;6.95;;;742.80;1536.00;;;;;;5053309;28;20048;-84
2022/04/24 13:48:24;;;;;;;20.63;7.65;;;742.80;1561.60;;;;;;5057438;28;20048;-88
2022/04/24 14:00:56;;;;;;;25.38;5.50;;;742.50;1382.40;;;;;;4993805;28;20033;-85
2022/04/24 14:03:58;;;;;;;26.00;6.25;;;742.50;1382.40;;;;;;4977471;28;20023;-87
2022/04/24 14:06:51;;;;;;;28.15;6.45;;;742.70;1382.40;;;;;;4977598;28;20449;-82
2022/04/24 14:23:30;;;;;;;19.98;8.02;;;717.70;1459.20;;;;;;4927360;29;20095;-86
2022/04/24 15:04:28;;;;;;;52.92;12.60;;;691.30;1152.00;;;;;;4897351;29;20079;-89
2022/04/24 15:06:55;;;;;;;57.65;13.07;;;666.50;1152.00;;;;;;4894654;28;20038;-85
2022/04/24 15:09:21;;;;;;;56.38;11.48;;;666.40;1177.60;;;;;;4956799;28;20023;-87
2022/04/24 15:11:46;;;;;;;56.33;11.77;;;666.40;1177.60;;;;;;5038044;28;20040;-87
2022/04/24 15:14:12;;;;;;;63.03;11.98;;;666.30;1177.60;;;;;;5071199;28;20025;-87
2022/04/24 15:16:38;;;;;;;72.80;12.73;;;666.30;1177.60;;;;;;5047273;28;20386;-86
2022/04/24 15:19:04;;;;;;;46.03;11.30;;;666.30;1203.20;;;;;;5052870;28;20029;-86
2022/04/24 15:22:26;;;;;;;56.85;11.70;;;666.00;1203.20;;;;;;5053738;28;20421;-86
2022/04/24 15:24:52;;;;;;;55.90;12.27;;;666.10;1203.20;;;;;;5054161;28;20079;-85
2022/04/24 15:27:20;;;;;;;44.83;8.65;;;666.10;1177.60;;;;;;5055713;28;20029;-86
2022/04/24 15:29:46;;;;;;;52.58;11.20;;;666.00;1152.00;;;;;;5052018;28;20389;-86
2022/04/24 15:32:16;;;;;;;45.50;9.43;;;666.00;1126.40;;;;;;5040064;28;20043;-85
2022/04/24 15:41:33;;;;;;;37.13;9.02;;;665.90;1126.40;;;;;;5054879;28;20543;-88
2022/04/24 15:44:17;;;;;;;47.08;8.15;;;665.80;1152.00;;;;;;5048941;28;20021;-82
2022/04/24 15:47:10;;;;;;;34.50;8.77;;;665.70;1177.60;;;;;;5056397;28;20070;-85
2022/04/24 15:49:51;;;;;;;29.83;7.25;;;665.70;1177.60;;;;;;5063850;28;20579;-88
2022/04/24 15:52:19;;;;;;;29.73;7.38;;;665.70;1152.00;;;;;;5043627;28;20048;-83
2022/04/24 15:55:19;;;;;;;36.65;6.80;;;665.60;1152.00;;;;;;5065674;28;20036;-85
2022/04/24 15:57:55;;;;;;;34.47;7.20;;;665.60;1152.00;;;;;;5056052;28;20425;-87